Time;durP1;ratioP1;P1;durP2;ratioP2;P2;SDS_P1;SDS_P2;PMS_P1;PMS_P2;Temp;Humidity;BMP_temperature;BMP_pressure;BME280_temperature;BME280_humidity;BME280_pressure;Samples;Min_cycle;Max_cycle;Signal;HPM_P1;HPM_P2
2023/08/27 00:01:38;;;;;;;3.72;2.47;;;20.40;89.20;;;;;;6272789;22;20107;-82
2023/08/27 00:04:24;;;;;;;3.42;2.35;;;20.30;89.50;;;;;;6272574;22;20015;-82
2023/08/27 00:07:10;;;;;;;4.95;2.63;;;20.30;89.90;;;;;;6271408;22;20015;-82
2023/08/27 00:09:56;;;;;;;4.80;2.63;;;20.30;89.90;;;;;;6273375;22;20098;-82
2023/08/27 00:12:42;;;;;;;4.22;2.50;;;20.20;90.10;;;;;;6271385;22;20453;-82
2023/08/27 00:15:28;;;;;;;3.30;2.30;;;20.20;90.30;;;;;;6273004;22;20007;-81
2023/08/27 00:18:14;;;;;;;4.70;3.05;;;20.10;90.30;;;;;;6272527;22;20048;-82
2023/08/27 00:21:00;;;;;;;9.60;3.00;;;20.10;90.40;;;;;;6272467;22;20008;-82
2023/08/27 00:23:46;;;;;;;3.78;2.25;;;20.10;90.50;;;;;;6272883;22;20476;-80
2023/08/27 00:26:32;;;;;;;5.97;2.90;;;20.00;90.50;;;;;;6270064;22;20516;-79
2023/08/27 00:29:19;;;;;;;5.40;2.75;;;20.00;90.50;;;;;;6272697;22;20437;-80
2023/08/27 00:32:06;;;;;;;4.18;2.65;;;19.90;90.60;;;;;;6272976;22;20062;-80
2023/08/27 00:34:51;;;;;;;6.68;3.67;;;19.90;90.80;;;;;;6271221;22;20037;-76
2023/08/27 00:37:37;;;;;;;3.83;2.75;;;19.80;90.80;;;;;;6271229;22;20453;-75
2023/08/27 00:40:27;;;;;;;4.63;2.60;;;19.80;91.00;;;;;;6272797;22;20458;-76
2023/08/27 00:43:13;;;;;;;3.67;2.50;;;19.80;91.10;;;;;;6270662;22;20016;-78
2023/08/27 00:45:59;;;;;;;5.47;3.10;;;19.80;91.20;;;;;;6273891;22;20070;-77
2023/08/27 00:48:45;;;;;;;6.18;2.95;;;19.70;91.30;;;;;;6271565;22;20039;-77
2023/08/27 00:51:32;;;;;;;4.78;2.67;;;19.70;91.50;;;;;;6270684;22;20047;-76
2023/08/27 00:54:18;;;;;;;4.05;2.58;;;19.70;91.60;;;;;;6272483;22;20031;-77
2023/08/27 00:57:05;;;;;;;4.60;2.50;;;19.70;91.60;;;;;;6248940;22;20373;-77
2023/08/27 00:59:53;;;;;;;5.10;2.72;;;19.70;91.70;;;;;;6271359;22;20012;-76
2023/08/27 01:02:42;;;;;;;3.72;2.53;;;19.70;91.80;;;;;;6272145;22;20015;-76
2023/08/27 01:05:28;;;;;;;4.72;2.78;;;19.70;91.70;;;;;;6270908;22;20091;-77
2023/08/27 01:08:57;;;;;;;5.18;2.75;;;19.60;91.80;;;;;;6269532;22;20067;-77
2023/08/27 01:12:08;;;;;;;11.90;5.38;;;19.60;92.00;;;;;;6221707;22;20011;-77
2023/08/27 01:14:58;;;;;;;7.55;4.50;;;19.60;92.00;;;;;;6273468;22;20046;-76
2023/08/27 01:17:45;;;;;;;13.15;6.72;;;19.60;91.90;;;;;;6270898;22;20023;-76
2023/08/27 01:20:32;;;;;;;11.45;6.70;;;19.60;92.00;;;;;;6272254;22;20596;-76
2023/08/27 01:23:17;;;;;;;7.60;4.40;;;19.60;92.10;;;;;;6270489;22;20444;-76
2023/08/27 01:26:03;;;;;;;6.15;3.30;;;19.60;92.00;;;;;;6271077;22;20008;-77
2023/08/27 01:29:01;;;;;;;5.30;2.70;;;19.70;92.10;;;;;;6272857;22;20019;-77
2023/08/27 01:32:09;;;;;;;5.88;2.58;;;19.60;92.10;;;;;;6271934;22;20073;-77
2023/08/27 01:34:56;;;;;;;4.53;2.78;;;19.60;92.20;;;;;;6249252;22;20020;-77
2023/08/27 01:37:43;;;;;;;3.53;2.22;;;19.60;92.20;;;;;;6272474;22;20011;-76
2023/08/27 01:40:29;;;;;;;7.80;2.63;;;19.50;92.40;;;;;;6274107;22;20027;-76
2023/08/27 01:43:15;;;;;;;4.60;2.55;;;19.50;92.40;;;;;;6251979;22;20027;-76
2023/08/27 01:46:02;;;;;;;6.05;2.85;;;19.50;92.50;;;;;;6274654;22;20057;-76
2023/08/27 01:48:48;;;;;;;4.75;2.60;;;19.50;92.70;;;;;;6251252;22;20024;-77
2023/08/27 01:51:34;;;;;;;4.80;2.55;;;19.60;92.80;;;;;;6251290;22;20008;-77
2023/08/27 01:54:20;;;;;;;4.90;2.65;;;19.60;92.80;;;;;;6251779;22;20015;-76
2023/08/27 01:57:06;;;;;;;4.25;2.65;;;19.60;92.80;;;;;;6251505;22;20026;-77
2023/08/27 01:59:52;;;;;;;6.25;2.55;;;19.60;92.80;;;;;;6273573;22;20257;-76
2023/08/27 02:02:38;;;;;;;4.85;2.63;;;19.60;92.90;;;;;;6273878;22;20039;-77
2023/08/27 02:05:24;;;;;;;5.03;2.72;;;19.50;92.80;;;;;;6251012;22;20065;-76
2023/08/27 02:08:10;;;;;;;7.65;2.72;;;19.50;92.80;;;;;;6252083;22;20731;-76
2023/08/27 02:10:56;;;;;;;4.03;2.60;;;19.50;92.90;;;;;;6273649;22;20007;-75
2023/08/27 02:13:42;;;;;;;6.28;2.67;;;19.50;93.00;;;;;;6274237;22;20106;-76
2023/08/27 02:16:28;;;;;;;5.70;2.55;;;19.50;93.00;;;;;;6250037;22;20020;-76
2023/08/27 02:19:15;;;;;;;4.03;2.55;;;19.40;93.00;;;;;;6251340;22;20074;-76
2023/08/27 02:22:01;;;;;;;3.05;2.35;;;19.40;93.10;;;;;;6251028;22;20014;-77
2023/08/27 02:24:47;;;;;;;4.75;2.53;;;19.50;93.20;;;;;;6251538;22;20066;-75
2023/08/27 02:27:33;;;;;;;4.15;2.85;;;19.40;93.30;;;;;;6273807;22;20066;-76
2023/08/27 02:30:19;;;;;;;5.00;2.92;;;19.50;93.30;;;;;;6252756;22;20093;-76
2023/08/27 05:04:50;;;;;;;6.38;4.10;;;18.90;96.00;;;;;;6271590;22;20032;-75
2023/08/27 05:07:37;;;;;;;5.57;3.80;;;18.90;96.10;;;;;;6271862;22;20015;-75
2023/08/27 05:10:23;;;;;;;5.68;3.75;;;18.90;96.30;;;;;;6270025;22;20012;-76
2023/08/27 05:13:09;;;;;;;5.78;3.70;;;19.00;96.30;;;;;;6270307;22;20034;-75
2023/08/27 05:15:55;;;;;;;5.00;4.07;;;19.00;96.40;;;;;;6272589;22;20066;-75
2023/08/27 05:18:42;;;;;;;5.20;3.40;;;19.00;96.40;;;;;;6270364;22;20484;-75
2023/08/27 05:21:28;;;;;;;5.22;3.45;;;19.00;96.50;;;;;;6272752;22;20015;-75
2023/08/27 05:24:14;;;;;;;5.10;3.92;;;19.00;96.50;;;;;;6274482;22;20003;-74
2023/08/27 05:27:00;;;;;;;5.45;4.20;;;19.00;96.60;;;;;;6273978;22;20035;-74
2023/08/27 05:29:46;;;;;;;7.72;3.80;;;19.10;96.60;;;;;;6272234;22;20012;-74
2023/08/27 05:32:32;;;;;;;6.88;4.28;;;19.10;96.60;;;;;;6275135;22;20004;-75
2023/08/27 05:35:18;;;;;;;5.88;4.15;;;19.20;96.60;;;;;;6274596;22;20452;-75
2023/08/27 05:38:04;;;;;;;6.30;3.58;;;19.20;96.70;;;;;;6273463;22;20003;-75
2023/08/27 05:40:51;;;;;;;6.43;4.00;;;19.20;96.80;;;;;;6274720;22;20488;-75
2023/08/27 05:43:37;;;;;;;6.90;4.03;;;19.30;96.80;;;;;;6271626;22;20012;-75
2023/08/27 05:46:23;;;;;;;5.95;3.90;;;19.30;96.90;;;;;;6271972;22;20012;-75
2023/08/27 05:49:09;;;;;;;6.10;4.00;;;19.40;96.90;;;;;;6274364;22;20011;-74
2023/08/27 05:51:55;;;;;;;6.70;3.95;;;19.50;96.90;;;;;;6273260;22;20016;-74
2023/08/27 05:54:40;;;;;;;5.47;3.47;;;19.50;96.90;;;;;;6251696;22;20023;-77
2023/08/27 05:57:26;;;;;;;9.82;4.55;;;19.60;96.90;;;;;;6273756;22;20007;-77
2023/08/27 06:00:13;;;;;;;5.55;3.90;;;19.60;96.70;;;;;;6252712;22;20012;-76
2023/08/27 06:02:59;;;;;;;7.85;3.72;;;19.70;96.70;;;;;;6252149;22;20027;-75
2023/08/27 06:05:45;;;;;;;6.65;4.10;;;19.70;96.60;;;;;;6252736;22;20022;-75
2023/08/27 06:08:31;;;;;;;5.28;3.47;;;19.70;96.60;;;;;;6293894;22;20000;-82
2023/08/27 06:11:17;;;;;;;5.10;3.38;;;19.70;96.70;;;;;;6282750;22;20016;-75
2023/08/27 06:14:03;;;;;;;5.00;3.10;;;19.80;96.80;;;;;;6274670;22;20015;-75
2023/08/27 06:16:49;;;;;;;5.32;3.55;;;19.90;96.70;;;;;;6273975;22;20019;-74
2023/08/27 06:19:36;;;;;;;6.90;4.35;;;19.90;96.60;;;;;;6251809;22;20019;-74
2023/08/27 06:22:23;;;;;;;6.30;3.88;;;20.00;96.60;;;;;;6272642;22;20008;-75
2023/08/27 06:25:09;;;;;;;5.38;3.53;;;20.00;96.60;;;;;;6248781;22;20015;-75
2023/08/27 06:27:58;;;;;;;6.75;4.13;;;20.00;96.60;;;;;;6274468;22;20008;-75
2023/08/27 06:30:44;;;;;;;9.65;3.53;;;20.10;96.60;;;;;;6274214;22;20449;-74
2023/08/27 06:33:31;;;;;;;4.43;3.30;;;20.20;96.60;;;;;;6273476;22;20053;-75
2023/08/27 06:36:17;;;;;;;6.30;4.07;;;20.20;96.40;;;;;;6269825;22;20376;-75
2023/08/27 06:39:03;;;;;;;5.65;3.25;;;20.30;96.40;;;;;;6273253;22;20090;-75
2023/08/27 06:41:49;;;;;;;5.63;4.05;;;20.30;96.30;;;;;;6270959;22;20082;-75
2023/08/27 06:44:35;;;;;;;6.35;3.90;;;20.40;96.40;;;;;;6251940;22;20322;-75
2023/08/27 06:47:21;;;;;;;6.03;3.25;;;20.50;96.00;;;;;;6272843;22;20081;-75
2023/08/27 06:50:07;;;;;;;4.68;3.17;;;20.50;96.10;;;;;;6249929;22;20027;-75
2023/08/27 06:52:53;;;;;;;4.93;3.40;;;20.60;96.00;;;;;;6249710;22;20015;-75
2023/08/27 06:55:38;;;;;;;6.22;3.45;;;20.60;95.80;;;;;;6251273;22;20461;-75
2023/08/27 06:58:24;;;;;;;5.20;3.20;;;20.70;95.70;;;;;;6251246;22;20010;-75
2023/08/27 07:01:10;;;;;;;4.30;2.83;;;20.80;95.50;;;;;;6273341;22;20012;-76
2023/08/27 07:03:58;;;;;;;5.28;3.47;;;20.80;95.20;;;;;;6273795;22;20070;-89
2023/08/27 07:06:44;;;;;;;5.05;2.63;;;20.90;95.10;;;;;;6249441;22;20350;-86
2023/08/27 07:09:30;;;;;;;5.75;2.72;;;20.90;94.90;;;;;;6273523;22;20406;-86
2023/08/27 07:12:16;;;;;;;5.53;2.72;;;21.00;94.60;;;;;;6250394;22;20015;-81
2023/08/27 07:15:03;;;;;;;4.35;2.83;;;20.90;94.50;;;;;;6272006;22;20734;-66
2023/08/27 07:17:49;;;;;;;4.93;2.55;;;21.00;94.20;;;;;;6270818;22;20022;-67
2023/08/27 07:20:35;;;;;;;6.80;3.15;;;21.00;94.10;;;;;;6270647;22;20357;-67
2023/08/27 07:23:21;;;;;;;3.40;2.40;;;21.00;94.00;;;;;;6272199;22;20007;-66
2023/08/27 07:26:07;;;;;;;5.63;2.65;;;21.10;94.00;;;;;;6272768;22;20342;-69
2023/08/27 07:28:53;;;;;;;5.00;2.85;;;21.20;93.90;;;;;;6271360;22;20012;-67
2023/08/27 07:31:39;;;;;;;5.07;2.75;;;21.20;93.90;;;;;;6270815;22;20081;-65
2023/08/27 07:34:25;;;;;;;5.13;2.67;;;21.30;93.50;;;;;;6270963;22;20053;-65
2023/08/27 07:37:11;;;;;;;7.97;2.63;;;21.30;93.40;;;;;;6270998;22;20008;-64
2023/08/27 07:39:57;;;;;;;5.72;3.00;;;21.40;93.40;;;;;;6272469;22;20395;-64
2023/08/27 07:42:42;;;;;;;3.95;2.40;;;21.40;93.50;;;;;;6269843;22;20004;-67
2023/08/27 07:45:28;;;;;;;3.85;2.47;;;21.50;93.40;;;;;;6272850;22;20023;-64
2023/08/27 07:48:14;;;;;;;6.03;3.03;;;21.60;93.30;;;;;;6273744;22;20527;-65
2023/08/27 07:51:02;;;;;;;3.08;2.13;;;21.60;93.30;;;;;;6250678;22;20085;-65
2023/08/27 07:53:48;;;;;;;6.32;2.75;;;21.80;93.20;;;;;;6270165;22;20403;-65
2023/08/27 07:56:34;;;;;;;4.45;2.40;;;21.90;93.10;;;;;;6270920;22;20449;-65
2023/08/27 07:59:20;;;;;;;4.65;2.47;;;22.00;92.80;;;;;;6271780;22;20326;-65
2023/08/27 08:02:06;;;;;;;3.35;1.92;;;22.10;92.30;;;;;;6272500;22;20095;-65
2023/08/27 08:04:52;;;;;;;3.70;2.47;;;22.10;92.00;;;;;;6270187;22;20011;-65
2023/08/27 08:07:38;;;;;;;4.55;2.22;;;22.20;91.90;;;;;;6269499;22;20007;-65
2023/08/27 08:10:24;;;;;;;6.05;2.97;;;22.30;91.90;;;;;;6248414;22;20082;-65
2023/08/27 08:13:10;;;;;;;4.78;3.05;;;22.40;91.80;;;;;;6270572;22;20452;-65
2023/08/27 08:15:56;;;;;;;5.53;2.80;;;22.40;91.70;;;;;;6271132;22;20011;-65
2023/08/27 08:18:42;;;;;;;4.65;2.90;;;22.60;91.70;;;;;;6272369;22;20016;-65
2023/08/27 08:21:27;;;;;;;4.50;1.98;;;22.70;91.70;;;;;;6250869;22;20008;-65
2023/08/27 08:24:13;;;;;;;4.50;2.40;;;22.80;91.20;;;;;;6272308;22;20022;-65
2023/08/27 08:27:02;;;;;;;4.32;2.13;;;22.90;91.10;;;;;;6272569;22;20007;-65
2023/08/27 08:29:49;;;;;;;7.97;2.35;;;23.00;90.90;;;;;;6249184;22;20012;-65
2023/08/27 08:32:35;;;;;;;3.03;1.80;;;23.00;90.50;;;;;;6271991;22;20008;-65
2023/08/27 08:35:21;;;;;;;4.15;1.98;;;22.90;90.40;;;;;;6272227;22;20019;-65
2023/08/27 08:38:07;;;;;;;3.40;2.00;;;22.90;90.30;;;;;;6272253;22;20008;-66
2023/08/27 08:40:59;;;;;;;3.67;2.20;;;22.90;90.40;;;;;;6270411;22;20027;-65
2023/08/27 08:43:55;;;;;;;4.05;2.08;;;23.00;90.40;;;;;;6271158;22;20063;-65
2023/08/27 08:46:43;;;;;;;3.03;1.80;;;23.00;90.40;;;;;;6271316;22;20084;-66
2023/08/27 08:49:32;;;;;;;3.30;1.70;;;23.00;90.20;;;;;;6272792;22;20012;-66
2023/08/27 08:52:21;;;;;;;4.43;2.00;;;23.00;90.00;;;;;;6273484;22;20122;-66
2023/08/27 08:55:10;;;;;;;4.10;2.08;;;23.00;90.00;;;;;;6273378;22;20015;-66
2023/08/27 08:58:08;;;;;;;2.85;2.10;;;23.00;90.00;;;;;;6273472;22;20012;-66
2023/08/27 09:00:55;;;;;;;3.45;2.25;;;23.00;90.00;;;;;;6274549;22;20114;-66
2023/08/27 09:03:43;;;;;;;2.97;1.98;;;23.00;90.20;;;;;;6274825;22;20030;-66
2023/08/27 09:06:30;;;;;;;4.88;2.17;;;23.10;90.30;;;;;;6273647;22;20031;-66
2023/08/27 09:09:18;;;;;;;4.20;2.03;;;23.10;90.10;;;;;;6274521;22;20697;-65
2023/08/27 09:12:07;;;;;;;4.13;2.53;;;23.20;89.70;;;;;;6272891;22;20011;-66
2023/08/27 09:14:54;;;;;;;3.95;2.13;;;23.20;90.00;;;;;;6273314;22;20019;-66
2023/08/27 09:17:40;;;;;;;2.55;1.52;;;23.20;90.00;;;;;;6272728;22;20057;-65
2023/08/27 09:20:26;;;;;;;3.70;2.00;;;23.30;89.20;;;;;;6272658;22;20019;-66
2023/08/27 09:23:13;;;;;;;3.80;1.80;;;23.30;88.40;;;;;;6273265;22;20555;-65
2023/08/27 09:26:00;;;;;;;2.03;1.42;;;23.30;88.30;;;;;;6271284;22;20015;-65
2023/08/27 09:28:47;;;;;;;2.92;1.70;;;23.30;88.10;;;;;;6272041;22;20004;-65
2023/08/27 09:31:41;;;;;;;3.00;2.00;;;23.40;87.70;;;;;;6271346;22;20015;-65
2023/08/27 09:34:27;;;;;;;5.00;1.42;;;23.40;87.60;;;;;;6271814;22;20022;-65
2023/08/27 09:37:13;;;;;;;2.58;1.60;;;23.40;87.20;;;;;;6273096;22;20398;-65
2023/08/27 09:39:59;;;;;;;4.13;1.60;;;23.40;86.70;;;;;;6269329;22;20038;-65
2023/08/27 09:42:46;;;;;;;5.72;1.42;;;23.40;85.80;;;;;;6270932;22;20058;-66
2023/08/27 09:45:34;;;;;;;3.63;1.63;;;23.40;86.00;;;;;;6271650;22;20524;-66
2023/08/27 09:48:25;;;;;;;3.55;1.67;;;23.40;85.80;;;;;;6273943;22;20018;-66
2023/08/27 09:51:11;;;;;;;4.28;2.15;;;23.40;85.90;;;;;;6270690;22;20262;-66
2023/08/27 09:53:57;;;;;;;2.85;1.65;;;23.40;85.90;;;;;;6273017;22;20070;-66
2023/08/27 09:56:46;;;;;;;5.95;1.88;;;23.40;85.40;;;;;;6272343;22;20090;-67
2023/08/27 09:59:31;;;;;;;3.33;1.90;;;23.50;85.40;;;;;;6271184;22;20438;-67
2023/08/27 10:02:19;;;;;;;2.83;1.80;;;23.50;85.40;;;;;;6274069;22;20015;-67
2023/08/27 10:05:08;;;;;;;4.43;2.15;;;23.50;85.40;;;;;;6273508;22;20008;-67
2023/08/27 10:07:56;;;;;;;3.83;1.63;;;23.60;85.30;;;;;;6273432;22;20011;-65
2023/08/27 10:10:42;;;;;;;13.52;1.95;;;23.70;84.90;;;;;;6271062;22;20015;-67
2023/08/27 10:13:28;;;;;;;8.43;2.40;;;23.70;85.30;;;;;;6274387;22;20027;-66
2023/08/27 10:16:15;;;;;;;2.50;1.70;;;23.70;85.50;;;;;;6274595;22;20011;-66
2023/08/27 10:19:01;;;;;;;2.75;1.67;;;23.80;86.40;;;;;;6273735;22;20094;-67
2023/08/27 10:21:47;;;;;;;3.22;1.52;;;23.90;85.00;;;;;;6273488;22;20014;-67
2023/08/27 10:24:34;;;;;;;2.25;1.48;;;24.00;84.50;;;;;;6273427;22;20016;-66
2023/08/27 10:27:21;;;;;;;5.50;1.90;;;24.10;83.70;;;;;;6271765;22;20003;-66
2023/08/27 10:30:08;;;;;;;4.20;1.80;;;24.10;83.20;;;;;;6272211;22;20020;-66
2023/08/27 10:32:54;;;;;;;3.20;1.55;;;24.10;82.50;;;;;;6272129;22;20004;-66
2023/08/27 10:35:41;;;;;;;2.83;1.85;;;24.20;82.90;;;;;;6272665;22;20019;-66
2023/08/27 10:38:29;;;;;;;5.43;1.65;;;24.20;83.20;;;;;;6270056;22;20007;-66
2023/08/27 10:41:18;;;;;;;4.43;1.92;;;24.20;83.50;;;;;;6270526;22;20016;-66
2023/08/27 10:44:05;;;;;;;4.88;2.28;;;24.30;82.80;;;;;;6271278;22;20093;-66
2023/08/27 10:47:14;;;;;;;4.47;2.05;;;24.30;82.90;;;;;;6273394;22;20016;-66
2023/08/27 10:50:00;;;;;;;6.05;3.38;;;24.30;83.10;;;;;;6272960;22;20456;-66
2023/08/27 10:52:50;;;;;;;2.50;1.85;;;24.30;82.70;;;;;;6270783;22;20008;-65
2023/08/27 10:55:36;;;;;;;2.00;1.58;;;24.30;83.00;;;;;;6272393;22;20016;-65
2023/08/27 10:58:24;;;;;;;3.67;1.83;;;24.30;83.10;;;;;;6272501;22;20012;-66
2023/08/27 11:01:10;;;;;;;2.53;1.60;;;24.30;83.40;;;;;;6271025;22;20026;-66
2023/08/27 11:04:01;;;;;;;4.68;1.83;;;24.40;83.20;;;;;;6272409;22;20452;-66
2023/08/27 11:06:51;;;;;;;3.85;2.10;;;24.40;83.10;;;;;;6272873;22;20007;-66
2023/08/27 11:09:52;;;;;;;4.80;1.95;;;24.40;82.90;;;;;;6271109;22;20011;-66
2023/08/27 11:12:38;;;;;;;3.55;1.88;;;24.50;83.20;;;;;;6272092;22;20090;-67
2023/08/27 11:15:31;;;;;;;2.65;1.85;;;24.50;83.40;;;;;;6273561;22;20020;-66
2023/08/27 11:18:21;;;;;;;2.35;1.77;;;24.60;83.30;;;;;;6272242;22;20097;-66
2023/08/27 11:21:24;;;;;;;2.85;1.55;;;24.50;83.40;;;;;;6268515;22;20043;-66
2023/08/27 11:24:17;;;;;;;4.80;1.90;;;24.50;83.00;;;;;;6269657;22;20266;-66
2023/08/27 11:27:05;;;;;;;3.50;1.85;;;24.50;82.80;;;;;;6271225;22;20019;-66
2023/08/27 11:29:56;;;;;;;2.97;1.90;;;24.40;83.00;;;;;;6273102;22;20007;-66
2023/08/27 11:32:43;;;;;;;3.13;1.70;;;24.30;82.80;;;;;;6271558;22;20579;-66
2023/08/27 11:35:29;;;;;;;3.53;2.00;;;24.30;83.30;;;;;;6268660;22;20454;-66
2023/08/27 11:38:15;;;;;;;3.70;1.58;;;24.30;83.50;;;;;;6271347;22;20019;-66
2023/08/27 11:41:00;;;;;;;3.35;1.83;;;24.20;82.80;;;;;;6271456;22;20012;-66
2023/08/27 11:43:53;;;;;;;5.32;2.22;;;24.20;83.40;;;;;;6273401;22;20014;-66
2023/08/27 11:46:41;;;;;;;3.22;2.15;;;24.20;83.50;;;;;;6270808;22;20023;-66
2023/08/27 11:49:35;;;;;;;3.17;1.50;;;24.20;83.40;;;;;;6271117;22;20061;-66
2023/08/27 11:52:21;;;;;;;5.22;1.83;;;24.20;83.30;;;;;;6271656;22;20007;-66
2023/08/27 11:55:08;;;;;;;2.80;1.90;;;24.10;83.00;;;;;;6250824;22;20023;-66
2023/08/27 11:57:55;;;;;;;3.25;1.85;;;24.00;82.60;;;;;;6270220;22;20026;-66
2023/08/27 12:00:48;;;;;;;3.22;1.83;;;24.00;82.60;;;;;;6270093;22;20101;-66
2023/08/27 12:03:34;;;;;;;2.53;1.65;;;24.00;82.50;;;;;;6250080;22;20027;-66
2023/08/27 12:06:28;;;;;;;3.50;2.10;;;23.90;82.70;;;;;;6272208;22;20022;-66
2023/08/27 12:09:23;;;;;;;4.78;2.33;;;23.90;83.00;;;;;;6269235;22;20086;-65
2023/08/27 12:12:08;;;;;;;;;;;23.90;82.70;;;;;;6248185;22;20081;-65
2023/08/27 12:14:59;;;;;;;3.67;2.13;;;23.90;83.10;;;;;;6249467;22;19913;-66
2023/08/27 12:17:47;;;;;;;3.17;2.03;;;23.90;82.60;;;;;;6270724;22;20011;-69
2023/08/27 12:20:34;;;;;;;3.85;2.45;;;24.00;83.00;;;;;;6271694;22;20090;-72
2023/08/27 12:23:20;;;;;;;2.42;1.75;;;24.00;83.30;;;;;;6270881;22;20019;-71
2023/08/27 12:26:07;;;;;;;3.40;2.13;;;24.10;82.10;;;;;;6267718;22;20082;-72
2023/08/27 12:28:53;;;;;;;4.15;1.80;;;24.10;82.30;;;;;;6270174;22;20091;-72
2023/08/27 12:31:39;;;;;;;4.78;2.03;;;24.10;82.50;;;;;;6270538;22;20599;-71
2023/08/27 12:34:48;;;;;;;12.68;2.20;;;24.10;82.20;;;;;;6247351;22;20483;-72
2023/08/27 12:37:34;;;;;;;1.95;1.67;;;24.00;82.80;;;;;;6272460;22;20026;-72
2023/08/27 12:40:20;;;;;;;2.45;1.60;;;23.90;82.40;;;;;;6272256;22;20447;-72
2023/08/27 12:43:06;;;;;;;4.38;1.40;;;23.80;82.80;;;;;;6277564;22;20090;-72
2023/08/27 12:45:52;;;;;;;3.40;2.00;;;23.80;82.50;;;;;;6255452;22;20073;-72
2023/08/27 12:48:38;;;;;;;2.47;1.50;;;23.70;83.50;;;;;;6274485;22;20223;-72
2023/08/27 12:51:24;;;;;;;3.22;1.90;;;23.70;82.40;;;;;;6273305;22;20042;-73
2023/08/27 12:54:10;;;;;;;2.70;1.83;;;23.60;83.40;;;;;;6273498;22;20025;-73
2023/08/27 12:56:56;;;;;;;2.85;2.00;;;23.60;83.00;;;;;;6272453;22;20056;-72
2023/08/27 12:59:42;;;;;;;3.58;2.05;;;23.50;82.50;;;;;;6272948;22;20016;-73
2023/08/27 13:02:28;;;;;;;7.00;2.40;;;23.40;82.30;;;;;;6271242;22;20011;-73
2023/08/27 13:05:14;;;;;;;2.80;1.90;;;23.40;82.10;;;;;;6270674;22;20015;-71
2023/08/27 13:08:00;;;;;;;3.42;1.60;;;23.40;82.50;;;;;;6270975;22;20031;-70
2023/08/27 13:10:46;;;;;;;3.35;2.03;;;23.30;82.40;;;;;;6271230;22;20352;-73
2023/08/27 13:13:32;;;;;;;5.35;2.13;;;23.30;82.50;;;;;;6272907;22;20030;-73
2023/08/27 13:16:18;;;;;;;4.57;2.40;;;23.30;82.20;;;;;;6269589;22;20040;-73
2023/08/27 13:19:04;;;;;;;3.17;1.80;;;23.30;82.20;;;;;;6271971;22;20007;-73
2023/08/27 13:21:51;;;;;;;4.97;2.25;;;23.20;82.10;;;;;;6246873;22;20039;-73
2023/08/27 13:24:37;;;;;;;4.80;2.38;;;23.20;82.90;;;;;;6270691;22;20453;-73
2023/08/27 13:27:23;;;;;;;3.03;1.98;;;23.10;83.30;;;;;;6270488;22;20008;-73
2023/08/27 13:30:09;;;;;;;2.80;1.80;;;23.10;83.40;;;;;;6270622;22;20026;-73
2023/08/27 13:32:55;;;;;;;4.03;2.30;;;23.10;83.50;;;;;;6270267;22;20091;-73
2023/08/27 13:35:41;;;;;;;4.75;2.38;;;23.10;84.20;;;;;;6272365;22;20445;-73
2023/08/27 13:38:29;;;;;;;3.00;1.75;;;23.20;84.40;;;;;;6271985;22;20012;-74
2023/08/27 13:41:15;;;;;;;4.30;1.98;;;23.20;83.90;;;;;;6270838;22;20018;-73
2023/08/27 13:44:01;;;;;;;1.90;1.52;;;23.30;84.00;;;;;;6271525;22;20011;-73
2023/08/27 13:46:47;;;;;;;3.00;1.80;;;23.30;83.90;;;;;;6273925;22;20031;-73
2023/08/27 13:49:33;;;;;;;2.97;1.65;;;23.30;83.60;;;;;;6274619;22;20042;-73
2023/08/27 13:52:19;;;;;;;2.95;1.85;;;23.30;82.70;;;;;;6273845;22;20026;-75
2023/08/27 13:55:05;;;;;;;2.50;1.60;;;23.30;83.00;;;;;;6271840;22;20410;-74
2023/08/27 13:57:51;;;;;;;2.63;1.52;;;23.30;82.70;;;;;;6272180;22;20008;-74
2023/08/27 14:00:37;;;;;;;10.98;2.45;;;23.30;83.50;;;;;;6271411;22;20007;-74
2023/08/27 14:03:23;;;;;;;2.42;1.52;;;23.30;83.40;;;;;;6273488;22;20026;-76
2023/08/27 14:06:09;;;;;;;5.05;1.90;;;23.30;83.40;;;;;;6274197;22;20011;-74
2023/08/27 14:08:55;;;;;;;6.95;2.35;;;23.30;83.60;;;;;;6273076;22;20446;-73
2023/08/27 14:11:41;;;;;;;2.92;1.75;;;23.30;83.50;;;;;;6271360;22;20508;-75
2023/08/27 14:14:27;;;;;;;2.58;1.55;;;23.30;82.90;;;;;;6273227;22;20358;-73
2023/08/27 14:17:13;;;;;;;2.70;1.60;;;23.30;82.90;;;;;;6274116;22;20426;-68
2023/08/27 14:19:59;;;;;;;3.72;1.55;;;23.30;82.50;;;;;;6273285;22;20489;-68
2023/08/27 14:22:45;;;;;;;3.22;1.52;;;23.20;81.90;;;;;;6251074;22;20070;-68
2023/08/27 14:25:31;;;;;;;2.85;1.15;;;23.20;82.20;;;;;;6272998;22;20087;-68
2023/08/27 14:28:17;;;;;;;2.67;1.75;;;23.20;81.80;;;;;;6251543;22;20008;-67
2023/08/27 14:31:03;;;;;;;3.47;1.80;;;23.20;82.20;;;;;;6273710;22;20312;-68
2023/08/27 14:33:49;;;;;;;2.95;1.77;;;23.10;82.40;;;;;;6271383;22;20400;-69
2023/08/27 14:36:36;;;;;;;6.82;3.63;;;23.10;82.30;;;;;;6271357;22;20007;-68
2023/08/27 14:39:21;;;;;;;3.30;1.80;;;23.10;82.40;;;;;;6250302;22;20023;-68
2023/08/27 14:42:07;;;;;;;4.53;2.03;;;23.00;82.20;;;;;;6270960;22;20004;-67
2023/08/27 14:44:53;;;;;;;2.50;1.58;;;23.00;82.40;;;;;;6270781;22;20012;-68
2023/08/27 14:47:39;;;;;;;3.13;1.83;;;22.90;82.70;;;;;;6274248;22;20090;-68
2023/08/27 14:50:25;;;;;;;6.18;2.05;;;22.90;83.00;;;;;;6271399;22;20082;-68
2023/08/27 14:53:11;;;;;;;2.75;1.70;;;22.80;83.30;;;;;;6273098;22;20024;-69
2023/08/27 14:55:58;;;;;;;2.55;1.58;;;22.80;83.70;;;;;;6272609;22;20011;-67
2023/08/27 14:58:48;;;;;;;3.67;1.70;;;22.70;83.90;;;;;;6271236;22;20015;-67
2023/08/27 15:01:34;;;;;;;2.88;1.35;;;22.70;84.20;;;;;;6271626;22;20003;-67
2023/08/27 15:04:20;;;;;;;3.33;1.63;;;22.60;84.40;;;;;;6270479;22;20023;-67
2023/08/27 15:07:06;;;;;;;5.22;2.10;;;22.60;84.60;;;;;;6271141;22;20012;-67
2023/08/27 15:09:52;;;;;;;4.00;2.05;;;22.60;84.80;;;;;;6271698;22;20034;-68
2023/08/27 15:12:38;;;;;;;2.50;1.83;;;22.50;85.70;;;;;;6273702;22;20035;-68
2023/08/27 15:15:23;;;;;;;3.80;1.83;;;22.50;86.20;;;;;;6270322;22;20022;-68
2023/08/27 15:18:09;;;;;;;4.35;2.10;;;22.40;86.90;;;;;;6268641;22;20463;-68
2023/08/27 15:20:55;;;;;;;4.15;2.22;;;22.40;87.60;;;;;;6268645;22;20012;-68
2023/08/27 15:23:41;;;;;;;4.30;2.15;;;22.40;88.50;;;;;;6272797;22;20012;-68
2023/08/27 15:26:28;;;;;;;2.80;1.65;;;22.30;89.00;;;;;;6250866;22;20014;-68
2023/08/27 15:29:14;;;;;;;6.18;1.90;;;22.20;89.70;;;;;;6271902;22;20011;-68
2023/08/27 15:32:00;;;;;;;3.58;1.65;;;22.20;90.00;;;;;;6272970;22;20011;-72
2023/08/27 15:34:46;;;;;;;3.88;2.10;;;22.20;90.30;;;;;;6272657;22;20016;-68
2023/08/27 15:37:32;;;;;;;4.55;2.15;;;22.10;90.60;;;;;;6272548;22;20003;-68
2023/08/27 15:40:19;;;;;;;3.13;1.73;;;22.10;90.90;;;;;;6270575;22;20123;-68
2023/08/27 15:43:37;;;;;;;4.10;1.92;;;22.10;91.30;;;;;;6269535;22;20003;-68
2023/08/27 15:46:23;;;;;;;3.90;2.20;;;22.00;91.20;;;;;;6222093;22;20020;-68
2023/08/27 15:49:09;;;;;;;6.25;2.50;;;21.90;91.60;;;;;;6270468;22;20007;-68
2023/08/27 15:51:55;;;;;;;5.00;2.22;;;21.90;91.80;;;;;;6269474;22;20016;-68
2023/08/27 15:54:41;;;;;;;4.47;2.00;;;21.90;92.10;;;;;;6271841;22;20081;-69
2023/08/27 15:57:28;;;;;;;6.68;2.60;;;21.90;92.30;;;;;;6272041;22;20449;-67
2023/08/27 16:00:14;;;;;;;4.03;2.33;;;21.90;92.30;;;;;;6269988;22;20007;-67
2023/08/27 16:03:00;;;;;;;3.05;1.80;;;21.80;92.50;;;;;;6271252;22;20385;-67
2023/08/27 16:05:46;;;;;;;4.60;2.33;;;21.80;92.40;;;;;;6268593;22;20015;-67
2023/08/27 16:08:32;;;;;;;3.90;2.20;;;21.80;92.70;;;;;;6272513;22;20026;-67
2023/08/27 16:11:18;;;;;;;3.55;1.90;;;21.80;92.80;;;;;;6271658;22;20016;-68
2023/08/27 16:14:04;;;;;;;3.47;2.20;;;21.70;92.90;;;;;;6269529;22;20022;-67
2023/08/27 16:16:51;;;;;;;6.40;2.05;;;21.70;93.10;;;;;;6270941;22;20008;-67
2023/08/27 16:19:37;;;;;;;4.38;2.10;;;21.70;93.10;;;;;;6270195;22;20011;-68
2023/08/27 16:22:23;;;;;;;3.08;1.85;;;21.60;93.20;;;;;;6271291;22;20008;-67
2023/08/27 16:25:12;;;;;;;4.60;2.10;;;21.70;93.20;;;;;;6272987;22;20049;-67
2023/08/27 16:27:58;;;;;;;4.13;2.13;;;21.60;93.10;;;;;;6270547;22;20058;-67
2023/08/27 16:30:44;;;;;;;4.85;2.65;;;21.60;93.30;;;;;;6271524;22;20011;-67
2023/08/27 16:33:29;;;;;;;5.40;2.33;;;21.60;93.30;;;;;;6247498;22;20022;-67
2023/08/27 16:36:16;;;;;;;4.70;2.72;;;21.60;93.30;;;;;;6271458;22;20018;-67
2023/08/27 16:39:02;;;;;;;4.03;2.50;;;21.50;93.40;;;;;;6271262;22;20000;-67
2023/08/27 16:41:48;;;;;;;3.83;2.38;;;21.50;93.60;;;;;;6271442;22;20434;-67
2023/08/27 16:44:34;;;;;;;3.67;2.35;;;21.50;93.60;;;;;;6272797;22;20337;-67
2023/08/27 16:47:20;;;;;;;5.35;2.30;;;21.50;93.50;;;;;;6271620;22;20022;-67
2023/08/27 16:50:06;;;;;;;4.97;2.30;;;21.40;93.50;;;;;;6273095;22;20023;-67
2023/08/27 16:52:52;;;;;;;3.78;2.35;;;21.40;93.60;;;;;;6272304;22;20090;-67
2023/08/27 16:55:38;;;;;;;3.90;2.72;;;21.40;93.70;;;;;;6272753;22;20026;-67
2023/08/27 16:58:24;;;;;;;2.78;1.98;;;21.40;93.70;;;;;;6270815;22;20000;-66
2023/08/27 17:01:10;;;;;;;4.65;2.17;;;21.30;93.80;;;;;;6248145;22;20090;-66
2023/08/27 17:03:58;;;;;;;4.15;2.13;;;21.30;93.90;;;;;;6271724;22;20020;-67